Abraham Lincoln Capital Airport
KSPI : now visible

Airfield :











YOU CAN JOIN US ON...

 
LOGIN :

Register | Disclaimer

   EN    FR    IT 

 









Legend :    VFR   Marginal VFR   IFR   Intensive IFR   Very Intensive IFR
Visi :
Ceiling :
>= 8 km
>= 3000ft
5 to 8 km
1000 to 3000 ft
1500m to 5 km
500 to 1000 ft
800 to 1500m
200 to 500 ft
< 800m
< 200 ft
Symbols :   Thunderstorms  Fog  Heavy snow  Heavy precipitations  Wind > 20 kt






- Airport Elevation : 598 ft
- IATA code : SPI


KSPI - Abraham Lincoln Capital

CURRENT METAR :
  • 080952Z AUTO 30005KT 8SM CLR 16/14 A2972 RMK AO2 SLP058 T01560144

EXPIRED METARs :
  • 080852Z AUTO 24006KT 8SM CLR 16/15 A2971 RMK AO2 SLP055 T01560150 56003
  • 080752Z AUTO 25005KT 8SM CLR 14/14 A2971 RMK AO2 SLP055 T01440139

TAF KSPI
Valid from the 08 at 06:00 until the 09 at 06:00 UTC


080520Z 0806/0906 26008KT P6SM SCT250
FM081100 32008KT P6SM SCT250
FM081900 18012KT P6SM SCT050 BKN250
FM082200 24012G22KT 6SM -TSRA BKN050CB
FM090000 34012G22KT P6SM BKN050



MET'MAP, your aeronautical weather chart ! - Copyright ORBIFLY December 2007 - Disclaimer

ORBIFLY MET'MAP TEAM :

Programming & Development : Alexandra Zaïnal
Concept & original design : Baudouin d'Aumeries
Assistance for programming : Marc-Olivier Méhu
Technical & hardware support : Manuel Goepfert

Contact : metmap@orbifly.com




SOURCES & CREDITS :

   NOAA       Earth
Advisory